Time;durP1;ratioP1;P1;durP2;ratioP2;P2;SDS_P1;SDS_P2;PMS_P1;PMS_P2;Temp;Humidity;BMP_temperature;BMP_pressure;BME280_temperature;BME280_humidity;BME280_pressure;Samples;Min_cycle;Max_cycle;Signal;HPM_P1;HPM_P2
2024/02/29 00:02:18;;;;;;;36.40;22.98;;;;;;;;;;5003668;28;25054;-65
2024/02/29 00:04:45;;;;;;;41.13;22.08;;;;;;;;;;5008763;28;25095;-66
2024/02/29 00:07:12;;;;;;;28.38;21.10;;;;;;;;;;4989731;28;25069;-64
2024/02/29 00:09:38;;;;;;;33.45;22.17;;;;;;;;;;4985895;28;25055;-64
2024/02/29 00:12:05;;;;;;;38.40;22.10;;;;;;;;;;5008926;28;25091;-65
2024/02/29 00:14:32;;;;;;;33.35;21.35;;;;;;;;;;4983877;28;25061;-67
2024/02/29 00:17:00;;;;;;;33.72;21.13;;;;;;;;;;4994030;28;25075;-64
2024/02/29 00:19:27;;;;;;;31.23;22.02;;;;;;;;;;5006443;28;25110;-66
2024/02/29 00:21:53;;;;;;;37.15;22.60;;;;;;;;;;4996893;28;25054;-65
2024/02/29 00:24:19;;;;;;;33.47;21.67;;;;;;;;;;4992800;28;25075;-63
2024/02/29 00:26:45;;;;;;;37.65;20.92;;;;;;;;;;4999773;28;25060;-66
2024/02/29 00:29:11;;;;;;;34.65;21.42;;;;;;;;;;4994791;28;25083;-64
2024/02/29 00:31:42;;;;;;;33.08;21.27;;;;;;;;;;4987441;28;25064;-64
2024/02/29 00:34:08;;;;;;;38.38;21.70;;;;;;;;;;4995164;28;25075;-65
2024/02/29 00:36:34;;;;;;;28.05;20.02;;;;;;;;;;4989142;28;25129;-63
2024/02/29 00:39:00;;;;;;;38.40;21.90;;;;;;;;;;4986240;28;25141;-65
2024/02/29 00:41:26;;;;;;;33.05;20.45;;;;;;;;;;5003718;28;25143;-66
2024/02/29 00:43:52;;;;;;;34.65;20.73;;;;;;;;;;5003947;28;25109;-65
2024/02/29 00:46:18;;;;;;;35.15;21.45;;;;;;;;;;4986984;28;25087;-66
2024/02/29 00:48:44;;;;;;;33.35;20.52;;;;;;;;;;4999257;28;25166;-65
2024/02/29 00:51:10;;;;;;;33.30;20.40;;;;;;;;;;4998656;28;25058;-65
2024/02/29 00:53:36;;;;;;;35.72;19.73;;;;;;;;;;5002932;28;25043;-67
2024/02/29 00:56:02;;;;;;;33.97;20.23;;;;;;;;;;4999816;28;25067;-66
2024/02/29 00:58:28;;;;;;;31.77;20.23;;;;;;;;;;5003149;28;25081;-67
2024/02/29 01:00:54;;;;;;;32.45;19.52;;;;;;;;;;5004857;28;25093;-68
2024/02/29 01:03:20;;;;;;;30.05;18.77;;;;;;;;;;5000625;28;25074;-68
2024/02/29 01:05:47;;;;;;;37.22;19.13;;;;;;;;;;5008047;28;25058;-67
2024/02/29 01:08:13;;;;;;;31.88;18.83;;;;;;;;;;4992766;28;25069;-66
2024/02/29 01:10:39;;;;;;;30.98;20.17;;;;;;;;;;4999432;28;25067;-68
2024/02/29 01:13:05;;;;;;;29.58;18.33;;;;;;;;;;4987099;28;25158;-67
2024/02/29 01:15:32;;;;;;;33.33;19.50;;;;;;;;;;5004366;28;25060;-67
2024/02/29 01:17:58;;;;;;;32.70;18.35;;;;;;;;;;5001010;28;25090;-69
2024/02/29 01:20:24;;;;;;;32.38;19.55;;;;;;;;;;4983859;28;25063;-68
2024/02/29 01:22:51;;;;;;;33.25;19.80;;;;;;;;;;4996736;28;25086;-68
2024/02/29 01:25:17;;;;;;;29.15;18.00;;;;;;;;;;4984136;28;25056;-68
2024/02/29 01:27:43;;;;;;;31.50;18.33;;;;;;;;;;4984042;28;25122;-67
2024/02/29 01:30:09;;;;;;;33.10;19.15;;;;;;;;;;4989340;28;25061;-69
2024/02/29 01:32:35;;;;;;;31.73;18.10;;;;;;;;;;5001708;28;25087;-66
2024/02/29 01:35:02;;;;;;;31.90;19.70;;;;;;;;;;5002965;28;25053;-69
2024/02/29 01:37:28;;;;;;;30.90;18.90;;;;;;;;;;4995636;28;25111;-67
2024/02/29 01:39:54;;;;;;;35.50;20.13;;;;;;;;;;5003712;28;25075;-66
2024/02/29 01:42:23;;;;;;;32.17;19.73;;;;;;;;;;4982740;28;25060;-67
2024/02/29 01:44:56;;;;;;;33.00;19.65;;;;;;;;;;4987536;28;25063;-68
2024/02/29 01:47:23;;;;;;;36.28;21.23;;;;;;;;;;5000502;28;25053;-68
2024/02/29 01:49:50;;;;;;;38.13;20.58;;;;;;;;;;5006766;28;25057;-66
2024/02/29 01:52:16;;;;;;;33.53;21.38;;;;;;;;;;5005241;28;25129;-67
2024/02/29 01:54:43;;;;;;;35.60;21.20;;;;;;;;;;5007084;28;25063;-65
2024/02/29 01:57:09;;;;;;;38.13;22.15;;;;;;;;;;5011566;28;25102;-66
2024/02/29 01:59:39;;;;;;;41.40;22.35;;;;;;;;;;5011429;28;25059;-68
2024/02/29 02:02:05;;;;;;;44.45;23.95;;;;;;;;;;4999149;28;25147;-68
2024/02/29 02:04:32;;;;;;;41.90;22.60;;;;;;;;;;4993226;28;25103;-67
2024/02/29 02:06:58;;;;;;;42.88;23.25;;;;;;;;;;5009697;28;25127;-68
2024/02/29 02:09:25;;;;;;;43.80;24.55;;;;;;;;;;4992830;28;25048;-68
2024/02/29 02:11:52;;;;;;;45.67;24.23;;;;;;;;;;4996156;28;25059;-70
2024/02/29 02:14:18;;;;;;;54.85;26.98;;;;;;;;;;5003745;28;25138;-65
2024/02/29 02:16:44;;;;;;;52.20;29.00;;;;;;;;;;5003808;28;25064;-66
2024/02/29 02:19:13;;;;;;;47.92;26.33;;;;;;;;;;4996831;28;25078;-68
2024/02/29 02:21:40;;;;;;;51.50;28.77;;;;;;;;;;5008516;28;25059;-67
2024/02/29 02:24:06;;;;;;;49.17;28.27;;;;;;;;;;5009006;28;25084;-70
2024/02/29 02:26:33;;;;;;;59.30;29.30;;;;;;;;;;5006850;28;25084;-70
2024/02/29 02:28:59;;;;;;;48.15;26.30;;;;;;;;;;5011378;28;25135;-69
2024/02/29 02:31:26;;;;;;;55.78;29.08;;;;;;;;;;5006093;28;25073;-67
2024/02/29 02:33:52;;;;;;;60.33;30.80;;;;;;;;;;5014892;28;25070;-70
2024/02/29 02:36:18;;;;;;;48.65;28.92;;;;;;;;;;4996995;28;25073;-67
2024/02/29 02:38:44;;;;;;;54.20;27.25;;;;;;;;;;5019891;28;25049;-70
2024/02/29 02:41:11;;;;;;;64.40;32.13;;;;;;;;;;5018965;28;25085;-74
2024/02/29 02:43:37;;;;;;;46.40;27.48;;;;;;;;;;5002136;28;25125;-68
2024/02/29 02:46:03;;;;;;;57.60;29.92;;;;;;;;;;5011939;28;25059;-69
2024/02/29 02:48:29;;;;;;;63.10;32.08;;;;;;;;;;5003536;28;25125;-69
2024/02/29 02:50:55;;;;;;;54.38;31.50;;;;;;;;;;4988531;28;25108;-67
2024/02/29 02:53:21;;;;;;;65.55;32.53;;;;;;;;;;4997909;28;25209;-72
2024/02/29 02:55:47;;;;;;;63.20;34.03;;;;;;;;;;5004403;28;25059;-70
2024/02/29 02:58:14;;;;;;;63.05;32.55;;;;;;;;;;5004061;28;25104;-75
2024/02/29 03:00:40;;;;;;;54.85;30.05;;;;;;;;;;5004679;28;25117;-69
2024/02/29 03:03:06;;;;;;;68.88;35.15;;;;;;;;;;5004389;28;25045;-68
2024/02/29 03:05:32;;;;;;;60.70;32.65;;;;;;;;;;4983237;28;25059;-68
2024/02/29 03:07:58;;;;;;;67.10;35.95;;;;;;;;;;4993257;28;25100;-69
2024/02/29 03:10:24;;;;;;;73.60;35.63;;;;;;;;;;4988486;28;25057;-70
2024/02/29 03:12:50;;;;;;;62.17;34.42;;;;;;;;;;4991815;28;25061;-69
2024/02/29 03:15:17;;;;;;;65.90;35.03;;;;;;;;;;5013268;28;25059;-68
2024/02/29 03:17:42;;;;;;;62.58;35.40;;;;;;;;;;5007514;28;25062;-70
2024/02/29 03:20:12;;;;;;;63.53;34.10;;;;;;;;;;4991800;28;25147;-73
2024/02/29 03:22:39;;;;;;;61.75;35.03;;;;;;;;;;5004277;28;25066;-69
2024/02/29 03:25:05;;;;;;;60.08;32.95;;;;;;;;;;4990835;28;25140;-68
2024/02/29 03:27:31;;;;;;;57.70;31.77;;;;;;;;;;5008622;28;25077;-69
2024/02/29 03:30:00;;;;;;;63.97;34.55;;;;;;;;;;5006342;28;25070;-68
2024/02/29 03:32:27;;;;;;;53.60;32.70;;;;;;;;;;4987824;28;25125;-69
2024/02/29 03:34:53;;;;;;;52.97;30.88;;;;;;;;;;4990403;28;25070;-71
2024/02/29 03:37:19;;;;;;;50.38;29.63;;;;;;;;;;4989103;28;25081;-69
2024/02/29 03:39:45;;;;;;;57.30;32.05;;;;;;;;;;5007208;28;25041;-71
2024/02/29 03:42:16;;;;;;;52.97;31.17;;;;;;;;;;5003229;28;25079;-70
2024/02/29 03:44:43;;;;;;;53.17;29.92;;;;;;;;;;5006293;28;25145;-68
2024/02/29 03:47:10;;;;;;;59.95;33.42;;;;;;;;;;5003074;28;25076;-72
2024/02/29 03:49:36;;;;;;;46.72;29.83;;;;;;;;;;5002177;28;25154;-70
2024/02/29 03:52:02;;;;;;;58.20;32.70;;;;;;;;;;5006926;28;25068;-68
2024/02/29 03:54:28;;;;;;;54.00;31.13;;;;;;;;;;4991810;28;25042;-70
2024/02/29 03:56:54;;;;;;;48.20;29.60;;;;;;;;;;5003341;28;25066;-70
2024/02/29 03:59:21;;;;;;;52.72;32.60;;;;;;;;;;4999381;28;25075;-68
2024/02/29 04:01:48;;;;;;;50.72;28.92;;;;;;;;;;4989619;28;25103;-70
2024/02/29 04:04:14;;;;;;;45.10;26.83;;;;;;;;;;5001895;28;25060;-70
2024/02/29 04:06:40;;;;;;;55.17;29.67;;;;;;;;;;4983713;28;25069;-69
2024/02/29 04:09:07;;;;;;;47.15;29.70;;;;;;;;;;4986767;28;25047;-70
2024/02/29 04:11:33;;;;;;;50.67;27.85;;;;;;;;;;4995223;28;25088;-69
2024/02/29 04:13:59;;;;;;;49.20;27.70;;;;;;;;;;4993579;28;25077;-70
2024/02/29 04:16:25;;;;;;;50.20;30.20;;;;;;;;;;5014223;28;25145;-69
2024/02/29 04:18:51;;;;;;;54.50;32.13;;;;;;;;;;5008429;28;25081;-72
2024/02/29 04:21:17;;;;;;;53.65;31.40;;;;;;;;;;4989072;28;25107;-68
2024/02/29 04:23:43;;;;;;;51.90;29.23;;;;;;;;;;5008283;28;25080;-68
2024/02/29 04:26:09;;;;;;;47.08;28.88;;;;;;;;;;4998284;28;25064;-71
2024/02/29 04:28:35;;;;;;;42.78;25.20;;;;;;;;;;5007140;28;25142;-70
2024/02/29 04:31:04;;;;;;;55.97;31.77;;;;;;;;;;5006005;28;25070;-69
2024/02/29 04:33:30;;;;;;;48.20;28.30;;;;;;;;;;4991393;28;25115;-70
2024/02/29 04:35:56;;;;;;;48.13;28.38;;;;;;;;;;4991191;28;25094;-72
2024/02/29 04:38:22;;;;;;;44.47;28.13;;;;;;;;;;4992371;28;25069;-68
2024/02/29 04:40:48;;;;;;;46.47;28.40;;;;;;;;;;4989330;28;25061;-68
2024/02/29 04:43:16;;;;;;;49.60;27.27;;;;;;;;;;5008008;28;25094;-68
2024/02/29 04:45:42;;;;;;;45.55;28.40;;;;;;;;;;5010182;28;25076;-68
2024/02/29 04:48:09;;;;;;;52.47;28.50;;;;;;;;;;5008018;28;25060;-70
2024/02/29 04:50:35;;;;;;;48.58;26.90;;;;;;;;;;4990259;28;25076;-68
2024/02/29 04:53:01;;;;;;;43.75;27.35;;;;;;;;;;5009884;28;25059;-68
2024/02/29 04:55:27;;;;;;;41.05;25.85;;;;;;;;;;5014192;28;25062;-68
2024/02/29 04:57:53;;;;;;;55.78;29.13;;;;;;;;;;5011096;28;25111;-70
2024/02/29 05:00:19;;;;;;;41.72;26.85;;;;;;;;;;5016730;28;25081;-68
2024/02/29 05:02:46;;;;;;;48.25;28.35;;;;;;;;;;4994839;28;25148;-67
2024/02/29 05:05:13;;;;;;;49.30;27.63;;;;;;;;;;5010314;28;25070;-69
2024/02/29 05:07:39;;;;;;;40.38;25.58;;;;;;;;;;4985606;28;25066;-70
2024/02/29 05:10:07;;;;;;;52.67;29.02;;;;;;;;;;4992776;28;25146;-70
2024/02/29 05:12:33;;;;;;;45.92;27.75;;;;;;;;;;4989845;28;25072;-68
2024/02/29 05:15:00;;;;;;;54.88;29.15;;;;;;;;;;5003503;28;25062;-69
2024/02/29 05:17:26;;;;;;;45.95;27.25;;;;;;;;;;5000026;28;25118;-69
2024/02/29 05:19:52;;;;;;;48.05;28.23;;;;;;;;;;5000708;28;25094;-71
2024/02/29 05:22:21;;;;;;;56.05;29.20;;;;;;;;;;5002417;28;25084;-68
2024/02/29 05:24:47;;;;;;;44.95;25.75;;;;;;;;;;4996827;28;25132;-72
2024/02/29 05:27:13;;;;;;;47.95;28.13;;;;;;;;;;4987991;28;25061;-69
2024/02/29 05:29:39;;;;;;;42.38;25.05;;;;;;;;;;4983685;28;25117;-70
2024/02/29 05:32:05;;;;;;;45.78;28.25;;;;;;;;;;5005650;28;25155;-70
2024/02/29 05:34:31;;;;;;;44.17;26.30;;;;;;;;;;4983018;28;25060;-69
2024/02/29 05:36:57;;;;;;;47.17;27.67;;;;;;;;;;4989770;28;25079;-68
2024/02/29 05:39:23;;;;;;;46.33;26.60;;;;;;;;;;5006548;28;25086;-71
2024/02/29 05:41:49;;;;;;;42.00;24.60;;;;;;;;;;5002448;28;25071;-69
2024/02/29 05:44:16;;;;;;;40.72;24.00;;;;;;;;;;5000159;28;25063;-67
2024/02/29 05:46:42;;;;;;;46.85;26.77;;;;;;;;;;4997555;28;25071;-69
2024/02/29 05:49:08;;;;;;;49.28;25.92;;;;;;;;;;4990752;28;25064;-69
2024/02/29 05:51:37;;;;;;;41.85;26.65;;;;;;;;;;5003153;28;25074;-70
2024/02/29 05:54:03;;;;;;;42.75;24.75;;;;;;;;;;4989481;28;25097;-69
2024/02/29 05:56:29;;;;;;;39.65;24.20;;;;;;;;;;4990342;28;25053;-68
2024/02/29 05:58:55;;;;;;;44.92;26.63;;;;;;;;;;4985747;28;26170;-69
2024/02/29 06:01:21;;;;;;;39.40;24.17;;;;;;;;;;5003312;28;25075;-68
2024/02/29 06:03:47;;;;;;;41.15;24.65;;;;;;;;;;4987307;28;25087;-72
2024/02/29 06:06:15;;;;;;;38.90;23.73;;;;;;;;;;4988004;28;25062;-70
2024/02/29 06:08:41;;;;;;;44.10;24.83;;;;;;;;;;4989136;28;25099;-70
2024/02/29 06:11:11;;;;;;;43.85;25.90;;;;;;;;;;4986219;28;25079;-69
2024/02/29 06:13:39;;;;;;;45.83;25.90;;;;;;;;;;5001635;28;25060;-67
2024/02/29 06:16:05;;;;;;;34.08;22.92;;;;;;;;;;4997550;28;25074;-70
2024/02/29 06:18:31;;;;;;;44.33;27.50;;;;;;;;;;5003729;28;25090;-68
2024/02/29 06:20:57;;;;;;;47.60;27.63;;;;;;;;;;4988881;28;25072;-70
2024/02/29 06:23:23;;;;;;;45.00;27.42;;;;;;;;;;5003791;28;25057;-72
2024/02/29 06:25:50;;;;;;;46.53;25.92;;;;;;;;;;5005432;28;25077;-69
2024/02/29 06:28:17;;;;;;;58.65;28.17;;;;;;;;;;5005894;28;25053;-68
2024/02/29 06:30:43;;;;;;;44.38;27.23;;;;;;;;;;5008642;28;25097;-70
2024/02/29 06:33:09;;;;;;;46.60;25.70;;;;;;;;;;4987782;28;25098;-70
2024/02/29 06:35:35;;;;;;;52.92;29.38;;;;;;;;;;4991259;28;25156;-70
2024/02/29 06:38:01;;;;;;;50.60;27.60;;;;;;;;;;4995238;28;25060;-70
2024/02/29 06:40:27;;;;;;;44.35;27.55;;;;;;;;;;5004370;28;25157;-68
2024/02/29 06:42:53;;;;;;;43.67;26.60;;;;;;;;;;4993411;28;25133;-72
2024/02/29 06:45:19;;;;;;;49.50;26.52;;;;;;;;;;4984934;28;25157;-71
2024/02/29 06:47:45;;;;;;;48.40;28.63;;;;;;;;;;5008580;28;25093;-69
2024/02/29 06:50:12;;;;;;;48.40;27.52;;;;;;;;;;5005002;28;25132;-71
2024/02/29 06:52:38;;;;;;;43.50;26.65;;;;;;;;;;4993226;28;25139;-70
2024/02/29 06:55:08;;;;;;;45.60;27.63;;;;;;;;;;5013899;28;25059;-71
2024/02/29 06:57:38;;;;;;;30.77;23.13;;;;;;;;;;5010860;28;25082;-70
2024/02/29 07:00:05;;;;;;;48.25;27.50;;;;;;;;;;4992391;28;25126;-69
2024/02/29 07:02:32;;;;;;;40.40;26.00;;;;;;;;;;5014866;28;25097;-72
2024/02/29 07:04:58;;;;;;;47.30;28.60;;;;;;;;;;5024260;28;25062;-69
2024/02/29 07:07:25;;;;;;;58.97;30.05;;;;;;;;;;5009014;28;25052;-68
2024/02/29 07:09:54;;;;;;;49.45;27.65;;;;;;;;;;5005173;28;25075;-72
2024/02/29 07:12:21;;;;;;;47.10;28.33;;;;;;;;;;4995439;28;25075;-72
2024/02/29 07:14:47;;;;;;;48.40;28.70;;;;;;;;;;4988654;28;25066;-73
2024/02/29 07:17:13;;;;;;;43.80;25.85;;;;;;;;;;5003905;28;25064;-71
2024/02/29 07:19:39;;;;;;;50.47;27.70;;;;;;;;;;5004585;28;25065;-70
2024/02/29 07:22:05;;;;;;;44.47;27.00;;;;;;;;;;4994572;28;25083;-70
2024/02/29 07:24:31;;;;;;;60.85;30.92;;;;;;;;;;4989228;28;25099;-72
2024/02/29 07:26:58;;;;;;;50.45;28.50;;;;;;;;;;5004229;28;25164;-71
2024/02/29 07:29:24;;;;;;;50.05;27.33;;;;;;;;;;4987182;28;25152;-71
2024/02/29 07:31:50;;;;;;;46.83;26.63;;;;;;;;;;4991629;28;25078;-71
2024/02/29 07:34:17;;;;;;;41.63;25.52;;;;;;;;;;4992783;28;25074;-71
2024/02/29 07:36:43;;;;;;;44.65;24.67;;;;;;;;;;5005275;28;25099;-69
2024/02/29 07:39:12;;;;;;;41.28;25.13;;;;;;;;;;4989164;28;25103;-72
2024/02/29 07:41:38;;;;;;;43.67;24.70;;;;;;;;;;5003408;28;25069;-71
2024/02/29 07:44:04;;;;;;;43.78;24.65;;;;;;;;;;4989418;28;25065;-70
2024/02/29 07:46:31;;;;;;;45.70;24.52;;;;;;;;;;4988831;28;25115;-71
2024/02/29 07:48:57;;;;;;;45.60;23.75;;;;;;;;;;5004059;28;25059;-69
2024/02/29 07:51:23;;;;;;;36.13;23.05;;;;;;;;;;5006059;28;25136;-72
2024/02/29 07:53:49;;;;;;;37.83;24.48;;;;;;;;;;4990662;28;25094;-70
2024/02/29 07:56:15;;;;;;;41.75;24.00;;;;;;;;;;5000140;28;25124;-71
2024/02/29 07:58:41;;;;;;;39.22;24.33;;;;;;;;;;5007514;28;25140;-72
2024/02/29 08:01:07;;;;;;;49.40;26.15;;;;;;;;;;4992389;28;25124;-68
2024/02/29 08:03:33;;;;;;;40.58;23.45;;;;;;;;;;4999574;28;25056;-70
2024/02/29 08:06:00;;;;;;;37.30;23.05;;;;;;;;;;4986742;28;25136;-70
2024/02/29 08:08:26;;;;;;;38.28;23.52;;;;;;;;;;5001700;28;25077;-71
2024/02/29 08:10:52;;;;;;;33.92;22.27;;;;;;;;;;4987348;28;25083;-71
2024/02/29 08:13:18;;;;;;;39.25;23.92;;;;;;;;;;5004020;28;25087;-69
2024/02/29 08:15:44;;;;;;;43.75;23.83;;;;;;;;;;4998062;28;25155;-69
2024/02/29 08:18:10;;;;;;;33.78;21.98;;;;;;;;;;4967964;28;25084;-71
2024/02/29 08:20:38;;;;;;;43.58;25.88;;;;;;;;;;4986783;28;25144;-70
2024/02/29 08:23:04;;;;;;;40.30;23.48;;;;;;;;;;4979907;28;25077;-70
2024/02/29 08:25:31;;;;;;;40.05;22.85;;;;;;;;;;5001754;28;25080;-70
2024/02/29 08:27:57;;;;;;;38.33;23.60;;;;;;;;;;4986924;28;25065;-71
2024/02/29 08:30:25;;;;;;;38.33;21.80;;;;;;;;;;5006321;28;25067;-73
2024/02/29 08:32:52;;;;;;;35.10;21.65;;;;;;;;;;4989057;28;25150;-70
2024/02/29 08:35:18;;;;;;;38.83;24.38;;;;;;;;;;5007818;28;25061;-69
2024/02/29 08:37:44;;;;;;;43.25;25.63;;;;;;;;;;4983292;28;25073;-69
2024/02/29 08:40:11;;;;;;;40.20;24.65;;;;;;;;;;4994335;28;25068;-70
2024/02/29 08:42:40;;;;;;;41.35;24.77;;;;;;;;;;5003721;28;25131;-71
2024/02/29 08:45:07;;;;;;;38.58;22.83;;;;;;;;;;5002513;28;25080;-72
2024/02/29 08:47:33;;;;;;;35.47;22.45;;;;;;;;;;5009983;28;25060;-71
2024/02/29 08:49:59;;;;;;;41.45;24.52;;;;;;;;;;5012775;28;25088;-72
2024/02/29 08:52:26;;;;;;;48.85;27.15;;;;;;;;;;5011925;28;25055;-71
2024/02/29 08:54:52;;;;;;;43.53;25.15;;;;;;;;;;4991734;28;25095;-69
2024/02/29 08:57:19;;;;;;;42.53;24.30;;;;;;;;;;5006669;28;25073;-70
2024/02/29 08:59:45;;;;;;;33.63;22.20;;;;;;;;;;4995925;28;25067;-69
2024/02/29 09:02:20;;;;;;;44.22;25.58;;;;;;;;;;5008764;28;25073;-70
2024/02/29 09:04:50;;;;;;;40.22;25.50;;;;;;;;;;5003336;28;25058;-68
2024/02/29 09:07:16;;;;;;;39.65;24.30;;;;;;;;;;5006167;28;25135;-69
2024/02/29 09:09:54;;;;;;;40.80;23.88;;;;;;;;;;5001566;28;25069;-72
2024/02/29 09:12:20;;;;;;;38.35;23.83;;;;;;;;;;4989799;28;25078;-70
2024/02/29 09:14:47;;;;;;;40.72;24.75;;;;;;;;;;5002782;28;25058;-69
2024/02/29 09:17:22;;;;;;;40.75;25.27;;;;;;;;;;5002344;28;25067;-71
2024/02/29 09:19:48;;;;;;;38.88;22.50;;;;;;;;;;5017869;28;25143;-70
2024/02/29 09:22:14;;;;;;;40.67;21.75;;;;;;;;;;5012991;28;25060;-69
2024/02/29 09:24:40;;;;;;;45.38;23.65;;;;;;;;;;5002297;28;25139;-68
2024/02/29 09:27:06;;;;;;;40.50;22.42;;;;;;;;;;4988975;28;25113;-69
2024/02/29 09:29:32;;;;;;;33.72;22.13;;;;;;;;;;4987823;28;25077;-69
2024/02/29 09:31:59;;;;;;;31.52;21.60;;;;;;;;;;5008101;28;25105;-69
2024/02/29 09:34:25;;;;;;;41.45;23.30;;;;;;;;;;4988422;28;25092;-72
2024/02/29 09:36:51;;;;;;;36.00;21.70;;;;;;;;;;4988066;28;25056;-71
2024/02/29 09:39:18;;;;;;;30.08;20.73;;;;;;;;;;4988128;28;25104;-68
2024/02/29 09:41:44;;;;;;;36.15;21.48;;;;;;;;;;4984710;28;25052;-69
2024/02/29 09:44:10;;;;;;;36.22;20.73;;;;;;;;;;5004415;28;25069;-72
2024/02/29 09:46:46;;;;;;;33.78;21.23;;;;;;;;;;4987828;28;25059;-69
2024/02/29 09:49:12;;;;;;;40.53;23.40;;;;;;;;;;5001816;28;25092;-69
2024/02/29 09:51:47;;;;;;;35.30;21.25;;;;;;;;;;4987098;28;25131;-71
2024/02/29 09:54:34;;;;;;;46.40;23.55;;;;;;;;;;4989586;28;25111;-70
2024/02/29 09:57:01;;;;;;;40.55;23.63;;;;;;;;;;4987028;28;25056;-69
2024/02/29 09:59:27;;;;;;;35.20;21.58;;;;;;;;;;4992252;28;25104;-70
2024/02/29 10:02:00;;;;;;;33.55;21.60;;;;;;;;;;5005732;28;25075;-74
2024/02/29 10:04:32;;;;;;;33.53;21.58;;;;;;;;;;4993175;28;25046;-71
2024/02/29 10:06:58;;;;;;;34.60;22.05;;;;;;;;;;5007542;28;25072;-70
2024/02/29 10:09:24;;;;;;;35.90;21.70;;;;;;;;;;4991473;28;25095;-69
2024/02/29 10:11:55;;;;;;;32.25;21.55;;;;;;;;;;5004527;28;25073;-68
2024/02/29 10:14:25;;;;;;;31.00;20.25;;;;;;;;;;4996420;28;25105;-69
2024/02/29 10:16:55;;;;;;;40.90;24.30;;;;;;;;;;5012040;28;25071;-69
2024/02/29 10:19:30;;;;;;;31.80;20.52;;;;;;;;;;5007852;28;25061;-67
2024/02/29 10:21:56;;;;;;;40.33;23.10;;;;;;;;;;5013319;28;25071;-71
2024/02/29 10:24:23;;;;;;;34.25;20.67;;;;;;;;;;5013028;28;25053;-70
2024/02/29 10:26:49;;;;;;;34.95;21.35;;;;;;;;;;5005733;28;25177;-69
2024/02/29 10:29:19;;;;;;;32.83;20.08;;;;;;;;;;4993586;28;25063;-70
2024/02/29 10:31:45;;;;;;;27.23;17.98;;;;;;;;;;4987548;28;25070;-68
2024/02/29 10:34:12;;;;;;;32.40;20.20;;;;;;;;;;4991607;28;25053;-69
2024/02/29 10:36:39;;;;;;;27.55;17.58;;;;;;;;;;5012136;28;25086;-71
2024/02/29 10:39:06;;;;;;;30.27;18.40;;;;;;;;;;4996610;28;25075;-69
2024/02/29 10:41:33;;;;;;;33.25;20.60;;;;;;;;;;4993977;28;25152;-69
2024/02/29 10:44:02;;;;;;;30.90;18.15;;;;;;;;;;4998770;28;25092;-68
2024/02/29 10:46:28;;;;;;;31.70;17.48;;;;;;;;;;4994615;28;25067;-69
2024/02/29 10:49:17;;;;;;;28.48;17.27;;;;;;;;;;5013189;28;25061;-72
2024/02/29 10:51:54;;;;;;;31.33;19.35;;;;;;;;;;4992674;28;25134;-68
2024/02/29 10:54:20;;;;;;;27.48;18.77;;;;;;;;;;4993808;28;25068;-71
2024/02/29 10:56:56;;;;;;;28.60;16.60;;;;;;;;;;5008511;28;25139;-69
2024/02/29 10:59:23;;;;;;;29.33;18.55;;;;;;;;;;5011012;28;25123;-67
2024/02/29 11:01:49;;;;;;;30.55;19.02;;;;;;;;;;4993940;28;25052;-67
2024/02/29 11:04:15;;;;;;;27.75;18.02;;;;;;;;;;4999714;28;25064;-67
2024/02/29 11:06:44;;;;;;;25.77;17.77;;;;;;;;;;5011866;28;25070;-69
2024/02/29 11:09:12;;;;;;;34.30;18.70;;;;;;;;;;4999213;28;25064;-66
2024/02/29 11:11:46;;;;;;;26.05;17.63;;;;;;;;;;5012939;28;25106;-66
2024/02/29 11:14:19;;;;;;;25.38;17.35;;;;;;;;;;5014421;28;25092;-66
2024/02/29 11:16:46;;;;;;;26.52;17.05;;;;;;;;;;4996010;28;25089;-66
2024/02/29 11:19:18;;;;;;;28.25;18.00;;;;;;;;;;5012343;28;25070;-68
2024/02/29 11:21:45;;;;;;;31.23;18.80;;;;;;;;;;5012711;28;25061;-68
2024/02/29 11:24:21;;;;;;;29.05;18.35;;;;;;;;;;5004095;28;25144;-66
2024/02/29 11:26:54;;;;;;;28.50;18.50;;;;;;;;;;5007765;28;25058;-66
2024/02/29 11:29:20;;;;;;;29.15;19.42;;;;;;;;;;5020124;28;25090;-69
2024/02/29 11:31:50;;;;;;;24.50;16.75;;;;;;;;;;5000681;28;25051;-68
2024/02/29 11:34:17;;;;;;;24.85;17.77;;;;;;;;;;5017147;28;25099;-69
2024/02/29 11:36:47;;;;;;;34.95;21.63;;;;;;;;;;5003520;28;25060;-68
2024/02/29 11:39:22;;;;;;;33.63;20.33;;;;;;;;;;4995413;28;25086;-66
2024/02/29 11:42:00;;;;;;;34.88;21.52;;;;;;;;;;5010858;28;25081;-68
2024/02/29 11:44:26;;;;;;;33.53;21.00;;;;;;;;;;5009332;28;25073;-69
2024/02/29 11:46:57;;;;;;;35.88;20.65;;;;;;;;;;4995711;28;25085;-69
2024/02/29 11:49:27;;;;;;;34.47;18.88;;;;;;;;;;5008175;28;25076;-69
2024/02/29 11:51:54;;;;;;;37.15;21.30;;;;;;;;;;4989702;28;25059;-68
2024/02/29 11:54:20;;;;;;;28.45;18.75;;;;;;;;;;5009150;28;25080;-70
2024/02/29 11:56:47;;;;;;;26.80;18.27;;;;;;;;;;5002532;28;25132;-71
2024/02/29 11:59:16;;;;;;;31.65;19.83;;;;;;;;;;4995888;28;25101;-69
2024/02/29 12:01:43;;;;;;;32.67;19.48;;;;;;;;;;4993014;28;25101;-72
2024/02/29 12:04:09;;;;;;;33.05;19.52;;;;;;;;;;4986956;28;25077;-72
2024/02/29 12:06:35;;;;;;;35.42;19.88;;;;;;;;;;5006354;28;25146;-69
2024/02/29 12:09:02;;;;;;;27.75;17.73;;;;;;;;;;5007118;28;25106;-68
2024/02/29 12:11:29;;;;;;;31.08;17.65;;;;;;;;;;4986342;28;25050;-69
2024/02/29 12:13:55;;;;;;;25.17;16.30;;;;;;;;;;4989980;28;25112;-71
2024/02/29 12:16:22;;;;;;;26.30;17.33;;;;;;;;;;5000955;28;25073;-69
2024/02/29 12:18:51;;;;;;;24.48;15.98;;;;;;;;;;5004745;28;25077;-70
2024/02/29 12:21:20;;;;;;;23.45;16.60;;;;;;;;;;5005566;28;25059;-69
2024/02/29 12:23:52;;;;;;;21.27;14.93;;;;;;;;;;5005368;28;25064;-71
2024/02/29 12:26:18;;;;;;;27.00;18.42;;;;;;;;;;5006380;28;25151;-69
2024/02/29 12:28:47;;;;;;;24.45;16.80;;;;;;;;;;4985986;28;25070;-69
2024/02/29 12:31:14;;;;;;;26.45;15.80;;;;;;;;;;4989882;28;25145;-70
2024/02/29 12:33:45;;;;;;;22.77;16.50;;;;;;;;;;5000025;28;25074;-69
2024/02/29 12:36:18;;;;;;;19.25;14.57;;;;;;;;;;4998395;28;25058;-70
2024/02/29 12:38:45;;;;;;;22.75;14.40;;;;;;;;;;5005256;28;25099;-69
2024/02/29 12:41:13;;;;;;;22.70;14.75;;;;;;;;;;4988864;28;25054;-70
2024/02/29 12:43:54;;;;;;;22.77;15.70;;;;;;;;;;5001268;28;25057;-71
2024/02/29 12:46:20;;;;;;;18.50;13.68;;;;;;;;;;4991810;28;25081;-73
2024/02/29 12:48:46;;;;;;;18.33;13.60;;;;;;;;;;5006860;28;25064;-69
2024/02/29 12:51:13;;;;;;;18.35;13.45;;;;;;;;;;4992326;28;25143;-70
2024/02/29 12:53:39;;;;;;;17.65;13.40;;;;;;;;;;4992127;28;25079;-70
2024/02/29 12:56:05;;;;;;;20.63;13.93;;;;;;;;;;5005541;28;25145;-70
2024/02/29 12:58:31;;;;;;;21.10;13.70;;;;;;;;;;4996291;28;25164;-73
2024/02/29 13:00:59;;;;;;;18.55;11.98;;;;;;;;;;5007394;28;25063;-67
2024/02/29 13:03:25;;;;;;;15.23;11.43;;;;;;;;;;4994424;28;25056;-70
2024/02/29 13:05:51;;;;;;;18.73;13.55;;;;;;;;;;5008776;28;25150;-67
2024/02/29 13:08:17;;;;;;;15.75;11.30;;;;;;;;;;4991450;28;25075;-68
2024/02/29 13:10:43;;;;;;;15.57;11.93;;;;;;;;;;5009846;28;25045;-68
2024/02/29 13:13:09;;;;;;;15.82;11.68;;;;;;;;;;5002871;28;25074;-68
2024/02/29 13:15:36;;;;;;;14.55;10.63;;;;;;;;;;5006397;28;25086;-68
2024/02/29 13:18:10;;;;;;;12.93;10.00;;;;;;;;;;5005013;28;25059;-69
2024/02/29 13:20:36;;;;;;;19.27;11.68;;;;;;;;;;4983236;28;25060;-70
2024/02/29 13:23:02;;;;;;;14.60;11.25;;;;;;;;;;4998954;28;25104;-68
2024/02/29 13:25:29;;;;;;;16.45;11.23;;;;;;;;;;5021339;28;25052;-68
2024/02/29 13:27:55;;;;;;;14.25;9.93;;;;;;;;;;5000153;28;25112;-69
2024/02/29 13:30:21;;;;;;;15.45;9.80;;;;;;;;;;5018427;28;25050;-69
2024/02/29 13:32:47;;;;;;;15.52;10.88;;;;;;;;;;5015641;28;25086;-67
2024/02/29 13:35:13;;;;;;;15.93;10.75;;;;;;;;;;5010191;28;25047;-67
2024/02/29 13:37:41;;;;;;;12.35;9.38;;;;;;;;;;5018987;28;25074;-66
2024/02/29 13:40:08;;;;;;;15.45;11.40;;;;;;;;;;5013587;28;25146;-67
2024/02/29 13:42:39;;;;;;;25.23;11.68;;;;;;;;;;5000489;28;25092;-69
2024/02/29 13:45:07;;;;;;;11.98;8.23;;;;;;;;;;5012773;28;25054;-69
2024/02/29 13:47:33;;;;;;;12.50;9.68;;;;;;;;;;5009331;28;25074;-73
2024/02/29 13:49:59;;;;;;;16.85;10.68;;;;;;;;;;5023016;28;25068;-74
2024/02/29 13:52:27;;;;;;;13.45;10.65;;;;;;;;;;5019225;28;25075;-71
2024/02/29 13:54:53;;;;;;;14.65;10.30;;;;;;;;;;4997142;28;25153;-69
2024/02/29 13:57:19;;;;;;;13.93;10.20;;;;;;;;;;4994155;28;25083;-70
2024/02/29 13:59:45;;;;;;;12.88;10.27;;;;;;;;;;4998353;28;25098;-70
2024/02/29 14:02:12;;;;;;;14.00;10.88;;;;;;;;;;4996315;28;25083;-71
2024/02/29 14:04:38;;;;;;;17.15;12.77;;;;;;;;;;4995469;28;25081;-68
2024/02/29 14:07:04;;;;;;;18.92;14.05;;;;;;;;;;4988053;28;25061;-70
2024/02/29 14:09:30;;;;;;;17.67;12.48;;;;;;;;;;4988285;28;25059;-71
2024/02/29 14:11:56;;;;;;;16.45;11.25;;;;;;;;;;5007581;28;25060;-71
2024/02/29 14:14:23;;;;;;;18.58;13.02;;;;;;;;;;4990192;28;25171;-70
2024/02/29 14:16:49;;;;;;;16.77;12.68;;;;;;;;;;5006937;28;25123;-69